Adrian, MN (56110)

3:32 PM CST on January 19, 2017 (GMT -0600)
Little Rock TWP | | Change Station

Elev 1594 ft 43.56 °N, 95.93 °W | Updated 25 seconds ago

Overcast
Overcast
37.4 °F
Feels Like 31 °F
N
9.0
Wind Variable Wind from ESE

Today
High -- | Low -- °F
--% Chance of Precip.
Yesterday
High -- | Low -- °F
Precip. -- in
Pressure 29.66 in
Visibility 0.2 miles
Clouds Overcast 100 ft
Windchill 31 °F
Dew Point 37 °F
Humidity 98%
Rainfall 0.00 in
Snow Depth Not available.
7:51 AM 5:18 PM
Waning Gibbous, 50% visible
METAR KLYV 192055Z AUTO 17006KT 1/4SM FG OVC001 02/01 A2966 RMK AO2
Pressure 29.66 in
Visibility 0.2 miles
Clouds Overcast 100 ft
Windchill 31 °F
Dew Point 37 °F
Humidity 98%
Rainfall 0.00 in
Snow Depth Not available.
7:51 AM 5:18 PM
Waning Gibbous, 50% visible
METAR KLYV 192055Z AUTO 17006KT 1/4SM FG OVC001 02/01 A2966 RMK AO2

Get Your Daily Forecast Email!

Thanks for signing up!

Be on the lookout for a verification email in your inbox.

You'll start receiving the daily forecast at 8 AM.

×

10-Day Weather Forecast

Almanac

Astronomy

Jan. 19, 2017 Rise Set
Actual Time
Civil Twilight
Nautical Twilight
Astronomical Twilight
Moon
Length of Visible Light
Length of Day
Tomorrow will be .
, % of the Moon is Illuminated

Today's Extremes

State Highs State Lows

Community

WunderPhotos

Upload Photos

1,962,540 photos uploaded!

WunderBlog® & News

Nearby

Air Quality

  Air Quality AQ Index Pollutant
Not available.

Snow Depth

Station Depth Elevation

Earthquake Activity

City Distance Mag. Time & Date
Minimum magnitude displayed is 2.5.

Coastal Water Temperatures

Place Temperature

Stations

Nearby Weather Stations

Station Location Temp. Windchill Dew Point Humidity Wind Precip. Elev Updated Type
                   

Watches & Warnings

There are currently no watches in effect.